Khabarovsk-Novy Airport
UHHH : now visible

Airfield :











YOU CAN JOIN US ON...

 
LOGIN :

Register | Disclaimer

   EN    FR    IT 

 









Legend :    VFR   Marginal VFR   IFR   Intensive IFR   Very Intensive IFR
Visi :
Ceiling :
>= 8 km
>= 3000ft
5 to 8 km
1000 to 3000 ft
1500m to 5 km
500 to 1000 ft
800 to 1500m
200 to 500 ft
< 800m
< 200 ft
Symbols :   Thunderstorms  Fog  Heavy snow  Heavy precipitations  Wind > 20 kt







- Airport Elevation : 244 ft
- IATA code : KHV


UHHH - Khabarovsk-Novy

CURRENT METAR :
  • 250900Z 06002MPS CAVOK 02/M10 Q1003 R05R/090060 NOSIG RMK QFE746/0995

EXPIRED METARs :
  • 250830Z 05003MPS 9999 FEW047 03/M10 Q1003 R05R/090060 NOSIG RMK QFE746/0995
  • 250800Z 06003MPS CAVOK 04/M10 Q1003 R05R/090060 NOSIG RMK QFE746/0995
  • 250730Z 09002MPS 060V120 CAVOK 04/M10 Q1003 R05R/090060 NOSIG RMK QFE746/0994
  • 250700Z 11003MPS 060V140 9999 FEW049 04/M10 Q1002 R05R/090060 NOSIG RMK QFE746/0994
  • 250630Z 35002MPS 320V030 CAVOK 05/M10 Q1002 R05R/090060 NOSIG RMK QFE746/0994

TAF TAF UHHH
Valid from the 25 at 09:00 until the 26 at 15:00 UTC


250747Z 2509/2615 06003MPS 9999 SCT025CB
FM251200 06006MPS 3100 -SHSN SCT007 BKN020CB
TEMPO 2515/2603 02010MPS 1400 SHSN BKN006 BKN015CB
FM260300 36006MPS 9999 SCT020CB
TEMPO 2603/2609 34007G12MPS 2000 SHSNRA SCT006 BKN015CB
UHHH FIR / Asia



MET'MAP, your aeronautical weather chart ! - Copyright ORBIFLY December 2007 - Disclaimer

ORBIFLY MET'MAP TEAM :

Programming & Development : Alexandra Zaïnal
Concept & Development : Baudouin d'Aumeries
Co-Development & Prog : Marc-Olivier Méhu
Technical & hardware support : Manuel Goepfert

Contact : metmap@orbifly.com




SOURCES & CREDITS :

   NOAA       Earth
Advisory